createdAt,value
2019-02-17T08:28:16.655Z,500.63
2019-02-17T08:29:16.641Z,360.00
2019-02-17T08:30:16.646Z,348.75
2019-02-17T08:31:16.653Z,354.38
2019-02-17T08:32:16.670Z,371.25
2019-02-17T08:33:16.681Z,427.50
2019-02-17T08:34:16.864Z,590.63
2019-02-17T08:35:16.703Z,776.25
2019-02-17T08:36:16.691Z,888.75
2019-02-17T08:37:16.703Z,1012.50
2019-02-17T08:38:16.708Z,1102.50
2019-02-17T08:39:16.738Z,1164.38
2019-02-17T08:40:16.738Z,1130.63
2019-02-17T08:41:16.740Z,1085.63
2019-02-17T08:42:16.793Z,1130.63
2019-02-17T08:43:16.746Z,1203.75
2019-02-17T08:44:16.752Z,1260.00
2019-02-17T08:45:16.788Z,1378.13
2019-02-17T08:46:16.765Z,1333.13
2019-02-17T08:47:16.785Z,1305.00
2019-02-17T08:48:16.795Z,1361.25
2019-02-17T08:49:16.806Z,1395.00
2019-02-17T08:50:16.815Z,1389.38
2019-02-17T08:51:16.832Z,1378.13
2019-02-17T08:52:16.843Z,1423.13
2019-02-17T08:53:16.959Z,1462.50
2019-02-17T08:54:16.868Z,1490.63
2019-02-17T08:55:16.873Z,1507.50
2019-02-17T08:56:18.701Z,1468.13
2019-02-17T08:57:16.892Z,1513.13
2019-02-17T08:58:16.914Z,1485.00
2019-02-17T08:59:16.914Z,1569.38
2019-02-17T09:00:16.947Z,1428.75
2019-02-17T09:01:16.948Z,1366.88
2019-02-17T09:02:16.950Z,1198.13
2019-02-17T09:03:16.965Z,1260.00
2019-02-17T09:04:16.975Z,1288.13
2019-02-17T09:05:16.987Z,1231.88
2019-02-17T09:06:16.998Z,1681.88
2019-02-17T09:07:17.011Z,1805.63
2019-02-17T09:08:17.023Z,1828.13
2019-02-17T09:09:17.057Z,1845.00
2019-02-17T09:10:17.045Z,1861.88
2019-02-17T09:11:17.062Z,1940.63
2019-02-17T09:12:17.081Z,1996.88
2019-02-17T09:13:18.571Z,1974.38
2019-02-17T09:14:17.100Z,1918.13
2019-02-17T09:15:17.115Z,1878.75
2019-02-17T09:16:17.134Z,1923.75
2019-02-17T09:17:17.147Z,2002.50
2019-02-17T09:18:17.152Z,1996.88
2019-02-17T09:19:17.177Z,1996.88
2019-02-17T09:20:17.182Z,2025.00
2019-02-17T09:21:17.201Z,2053.13
2019-02-17T09:22:17.215Z,2109.38
2019-02-17T09:23:17.226Z,2126.25
2019-02-17T09:24:17.247Z,1901.25
2019-02-17T09:25:17.254Z,1839.38
2019-02-17T09:26:17.267Z,1918.13
2019-02-17T09:27:17.285Z,1996.88
2019-02-17T09:28:17.298Z,2064.38
2019-02-17T09:29:17.313Z,2019.38
2019-02-17T09:30:17.330Z,1996.88
2019-02-17T09:31:17.346Z,2041.88
2019-02-17T09:32:17.352Z,2103.75
2019-02-17T09:33:17.376Z,2205.00
2019-02-17T09:34:17.384Z,2053.13
2019-02-17T09:35:17.399Z,2086.88
2019-02-17T09:36:17.411Z,2064.38
2019-02-17T09:37:17.426Z,2008.13
2019-02-17T09:38:17.448Z,2058.75
2019-02-17T09:39:17.462Z,2081.25
2019-02-17T09:40:17.471Z,1822.50
2019-02-17T09:41:17.490Z,1912.50
2019-02-17T09:42:17.516Z,1839.38
2019-02-17T09:43:17.521Z,1991.25
2019-02-17T09:44:17.533Z,2008.13
2019-02-17T09:45:17.554Z,1929.38
2019-02-17T09:46:17.558Z,1783.13
2019-02-17T09:47:17.589Z,1906.88
2019-02-17T09:48:17.590Z,1873.13
2019-02-17T09:49:17.617Z,1918.13
2019-02-17T09:50:17.635Z,1980.00
2019-02-17T09:51:17.648Z,1935.00
2019-02-17T09:52:17.656Z,1991.25
2019-02-17T09:53:17.670Z,1991.25
2019-02-17T09:54:17.747Z,1951.88
2019-02-17T09:55:17.701Z,1811.25
2019-02-17T09:56:17.714Z,1906.88
2019-02-17T09:57:17.727Z,1828.13
2019-02-17T09:58:17.747Z,1693.13
2019-02-17T09:59:17.764Z,1800.00
2019-02-17T10:00:17.769Z,1715.63
2019-02-17T10:01:17.792Z,1755.00
2019-02-17T10:02:26.320Z,1676.25
2019-02-17T10:03:17.823Z,1805.63
2019-02-17T10:04:17.836Z,1901.25
2019-02-17T10:05:17.848Z,2002.50
2019-02-17T10:06:17.861Z,2041.88
2019-02-17T10:07:17.880Z,2120.63
2019-02-17T10:08:17.896Z,2143.13
2019-02-17T10:09:17.898Z,2103.75
2019-02-17T10:10:17.924Z,2171.25
2019-02-17T10:11:17.939Z,2278.13
2019-02-17T10:12:17.956Z,2295.00
2019-02-17T10:13:17.972Z,2317.50
2019-02-17T10:14:17.995Z,2401.88
2019-02-17T10:15:18.007Z,2514.38
2019-02-17T10:16:18.029Z,2632.50
2019-02-17T10:17:18.033Z,2593.13
2019-02-17T10:18:18.060Z,2525.63
2019-02-17T10:19:18.064Z,2475.00
2019-02-17T10:20:18.090Z,2525.63
2019-02-17T10:21:18.098Z,2671.88
2019-02-17T10:22:18.118Z,2806.88
2019-02-17T10:23:18.141Z,2767.50
2019-02-17T10:24:18.153Z,2790.00
2019-02-17T10:25:18.171Z,2851.88
2019-02-17T10:26:18.179Z,2795.63
2019-02-17T10:27:18.201Z,2806.88
2019-02-17T10:28:18.213Z,2795.63
2019-02-17T10:29:18.230Z,2818.13
2019-02-17T10:30:18.253Z,2806.88
2019-02-17T10:31:18.262Z,2795.63
2019-02-17T10:32:18.281Z,2666.25
2019-02-17T10:33:18.289Z,2745.00
2019-02-17T10:34:18.320Z,2874.38
2019-02-17T10:35:18.330Z,2806.88
2019-02-17T10:36:18.349Z,2756.25
2019-02-17T10:37:18.372Z,2739.38
2019-02-17T10:38:18.439Z,2823.75
2019-02-17T10:39:18.412Z,2908.13
2019-02-17T10:40:18.418Z,2908.13
2019-02-17T10:41:18.435Z,2891.25
2019-02-17T10:42:18.458Z,2868.75
2019-02-17T10:43:18.472Z,2874.38
2019-02-17T10:44:18.489Z,2891.25
2019-02-17T10:45:18.510Z,2902.50
2019-02-17T10:46:18.534Z,2958.75
2019-02-17T10:47:18.538Z,2964.38
2019-02-17T10:48:18.569Z,2964.38
2019-02-17T10:49:19.388Z,2891.25
2019-02-17T10:50:18.589Z,2739.38
2019-02-17T10:51:18.621Z,2660.63
2019-02-17T10:52:18.632Z,2728.13
2019-02-17T10:53:18.657Z,2829.38
2019-02-17T10:54:18.669Z,2835.00
2019-02-17T10:55:18.683Z,2790.00
2019-02-17T10:56:18.693Z,2756.25
2019-02-17T10:57:18.717Z,2812.50
2019-02-17T10:58:18.750Z,2874.38
2019-02-17T10:59:18.757Z,2913.75
2019-02-17T11:00:18.773Z,3082.50
2019-02-17T11:01:18.791Z,3076.88
2019-02-17T11:02:18.803Z,2992.50
2019-02-17T11:03:18.826Z,2986.88
2019-02-17T11:04:18.843Z,2953.13
2019-02-17T11:05:18.868Z,2947.50
2019-02-17T11:06:18.890Z,2986.88
2019-02-17T11:07:18.893Z,2936.25
2019-02-17T11:08:18.916Z,2953.13
2019-02-17T11:09:18.929Z,2930.63
2019-02-17T11:10:18.952Z,2874.38
2019-02-17T11:11:18.974Z,2947.50
2019-02-17T11:12:18.995Z,3020.63
2019-02-17T11:13:19.014Z,2986.88
2019-02-17T11:14:19.027Z,2975.63
2019-02-17T11:15:19.042Z,2891.25
2019-02-17T11:16:19.064Z,2981.25
2019-02-17T11:17:19.089Z,3076.88
2019-02-17T11:18:19.096Z,3133.13
2019-02-17T11:19:19.128Z,3195.00
2019-02-17T11:20:19.129Z,3138.75
2019-02-17T11:21:19.152Z,3082.50
2019-02-17T11:22:23.147Z,2998.13
2019-02-17T11:23:19.185Z,3110.63
2019-02-17T11:24:19.210Z,3150.00
2019-02-17T11:25:19.224Z,3240.00
2019-02-17T11:26:19.323Z,3189.38
2019-02-17T11:27:19.256Z,3138.75
2019-02-17T11:28:19.280Z,3121.88
2019-02-17T11:29:19.299Z,3060.00
2019-02-17T11:30:19.344Z,3116.25
2019-02-17T11:31:19.331Z,3161.25
2019-02-17T11:32:19.347Z,3144.38
2019-02-17T11:33:19.378Z,3037.50
2019-02-17T11:34:19.382Z,2975.63
2019-02-17T11:35:19.410Z,2919.38
2019-02-17T11:36:19.419Z,3093.75
2019-02-17T11:37:19.440Z,3166.88
2019-02-17T11:38:19.456Z,3133.13
2019-02-17T11:39:19.487Z,3155.63
2019-02-17T11:40:19.493Z,3200.63
2019-02-17T11:41:19.509Z,3245.63
2019-02-17T11:42:19.521Z,3273.75
2019-02-17T11:43:19.545Z,3195.00
2019-02-17T11:44:19.563Z,3088.13
2019-02-17T11:45:19.579Z,3099.38
2019-02-17T11:46:19.617Z,3183.75
2019-02-17T11:47:19.619Z,3256.88
2019-02-17T11:48:19.635Z,3195.00
2019-02-17T11:49:19.652Z,3200.63
2019-02-17T11:50:19.673Z,3301.88
2019-02-17T11:51:19.686Z,2823.75
2019-02-17T11:52:19.705Z,2666.25
2019-02-17T11:53:19.724Z,2835.00
2019-02-17T11:54:19.743Z,3043.13
2019-02-17T11:55:19.760Z,3076.88
2019-02-17T11:56:19.780Z,2975.63
2019-02-17T11:57:19.798Z,2885.63
2019-02-17T11:58:19.816Z,2497.50
2019-02-17T11:59:19.835Z,2626.88
2019-02-17T12:00:19.859Z,2874.38
2019-02-17T12:01:19.865Z,2970.00
2019-02-17T12:02:24.952Z,3020.63
2019-02-17T12:03:19.904Z,3003.75
2019-02-17T12:04:19.923Z,3076.88
2019-02-17T12:05:19.939Z,3099.38
2019-02-17T12:06:19.960Z,3183.75
2019-02-17T12:07:19.985Z,3206.25
2019-02-17T12:08:19.995Z,3166.88
2019-02-17T12:09:20.021Z,3048.75
2019-02-17T12:10:20.035Z,3121.88
2019-02-17T12:11:20.048Z,3121.88
2019-02-17T12:12:20.068Z,3037.50
2019-02-17T12:13:20.085Z,3020.63
2019-02-17T12:14:20.108Z,2953.13
2019-02-17T12:15:20.116Z,2896.88
2019-02-17T12:16:20.141Z,2941.88
2019-02-17T12:17:20.159Z,3009.38
2019-02-17T12:18:20.181Z,2992.50
2019-02-17T12:19:20.197Z,2970.00
2019-02-17T12:20:20.213Z,2902.50
2019-02-17T12:21:20.233Z,3015.00
2019-02-17T12:22:20.246Z,3015.00
2019-02-17T12:23:20.268Z,3048.75
2019-02-17T12:24:20.287Z,3003.75
2019-02-17T12:25:20.308Z,2913.75
2019-02-17T12:26:20.343Z,2778.75
2019-02-17T12:27:20.330Z,2694.38
2019-02-17T12:28:20.366Z,2722.50
2019-02-17T12:29:20.381Z,2936.25
2019-02-17T12:30:20.394Z,2986.88
2019-02-17T12:31:20.415Z,2874.38
2019-02-17T12:32:20.424Z,2896.88
2019-02-17T12:33:21.836Z,2925.00
2019-02-17T12:34:20.475Z,2947.50
2019-02-17T12:35:20.488Z,2835.00
2019-02-17T12:36:20.514Z,2705.63
2019-02-17T12:37:20.526Z,2773.13
2019-02-17T12:38:20.549Z,2795.63
2019-02-17T12:39:20.562Z,2790.00
2019-02-17T12:40:20.726Z,3071.25
2019-02-17T12:41:20.611Z,3678.75
2019-02-17T12:42:20.619Z,3931.88
2019-02-17T12:43:20.726Z,3841.88
2019-02-17T12:44:20.664Z,3425.63
2019-02-17T12:45:20.677Z,2998.13
2019-02-17T12:46:20.702Z,3082.50
2019-02-17T12:47:20.715Z,3150.00
2019-02-17T12:48:20.734Z,3082.50
2019-02-17T12:49:20.753Z,2913.75
2019-02-17T12:50:20.820Z,2908.13
2019-02-17T12:51:20.792Z,2970.00
2019-02-17T12:52:20.849Z,2868.75
2019-02-17T12:53:20.820Z,2767.50
2019-02-17T12:54:28.896Z,2711.25
2019-02-17T12:55:20.858Z,2812.50
2019-02-17T12:56:20.879Z,2711.25
2019-02-17T12:57:20.906Z,2767.50
2019-02-17T12:58:29.570Z,2790.00
2019-02-17T12:59:20.932Z,2778.75
2019-02-17T13:00:20.958Z,2756.25
2019-02-17T13:01:20.971Z,2666.25
2019-02-17T13:02:20.996Z,2581.88
2019-02-17T13:03:28.309Z,2469.38
2019-02-17T13:04:21.020Z,2368.13
2019-02-17T13:05:21.043Z,2401.88
2019-02-17T13:06:21.083Z,2362.50
2019-02-17T13:07:21.082Z,2424.38
2019-02-17T13:08:21.115Z,2368.13
2019-02-17T13:09:21.108Z,2520.00
2019-02-17T13:10:21.189Z,2925.00
2019-02-17T13:11:21.159Z,2840.63
2019-02-17T13:12:21.181Z,2576.25
2019-02-17T13:13:21.188Z,2261.25
2019-02-17T13:14:21.208Z,2233.13
2019-02-17T13:15:21.228Z,2283.75
2019-02-17T13:16:21.244Z,2368.13
2019-02-17T13:17:21.263Z,2368.13
2019-02-17T13:18:21.277Z,2334.38
2019-02-17T13:19:21.322Z,2283.75
2019-02-17T13:20:21.322Z,2278.13
2019-02-17T13:21:21.330Z,2351.25
2019-02-17T13:22:21.355Z,2311.88
2019-02-17T13:23:21.373Z,2261.25
2019-02-17T13:24:21.401Z,2221.88
2019-02-17T13:25:21.417Z,2250.00
2019-02-17T13:26:21.441Z,2205.00
2019-02-17T13:27:21.458Z,2233.13
2019-02-17T13:28:21.460Z,2261.25
2019-02-17T13:29:21.484Z,2306.25
2019-02-17T13:30:21.494Z,2221.88
2019-02-17T13:31:21.519Z,2227.50
2019-02-17T13:32:21.525Z,2261.25
2019-02-17T13:33:21.555Z,2221.88
2019-02-17T13:34:21.572Z,2188.13
2019-02-17T13:36:21.615Z,2103.75
2019-02-17T13:37:21.622Z,2086.88
2019-02-17T13:38:21.636Z,2036.25
2019-02-17T13:39:21.674Z,2081.25
2019-02-17T13:40:21.684Z,2058.75
2019-02-17T13:41:21.694Z,1996.88
2019-02-17T13:42:21.707Z,1845.00
2019-02-17T13:43:21.752Z,1890.00
2019-02-17T13:44:21.747Z,1985.63
2019-02-17T13:45:21.767Z,2176.88
2019-02-17T13:46:21.796Z,2188.13
2019-02-17T13:47:21.799Z,2193.75
2019-02-17T13:48:21.815Z,2143.13
2019-02-17T13:49:21.843Z,2086.88
2019-02-17T13:50:22.191Z,2137.50
2019-02-17T13:51:21.878Z,2103.75
2019-02-17T13:52:21.882Z,2126.25
2019-02-17T13:53:21.908Z,2086.88
2019-02-17T13:54:21.916Z,2053.13
2019-02-17T13:55:21.935Z,2013.75
2019-02-17T13:56:21.968Z,2008.13
2019-02-17T13:57:21.974Z,1968.75
2019-02-17T13:58:21.984Z,1957.50
2019-02-17T13:59:22.005Z,1968.75
2019-02-17T14:00:22.026Z,1918.13
2019-02-17T14:01:22.038Z,1856.25
2019-02-17T14:02:22.062Z,1771.88
2019-02-17T14:03:22.079Z,1760.63
2019-02-17T14:04:22.093Z,1760.63
2019-02-17T14:05:22.121Z,1726.88
2019-02-17T14:06:22.129Z,1771.88
2019-02-17T14:07:22.148Z,1828.13
2019-02-17T14:08:22.175Z,1822.50
2019-02-17T14:09:22.177Z,1715.63
2019-02-17T14:10:22.190Z,1693.13
2019-02-17T14:11:22.205Z,1653.75
2019-02-17T14:12:22.229Z,1479.38
2019-02-17T14:13:22.253Z,1653.75
2019-02-17T14:14:22.261Z,1755.00
2019-02-17T14:15:22.276Z,1569.38
2019-02-17T14:16:22.297Z,1597.50
2019-02-17T14:17:22.321Z,1620.00
2019-02-17T14:18:22.340Z,1614.38
2019-02-17T14:19:22.343Z,1440.00
2019-02-17T14:20:22.389Z,1625.63
2019-02-17T14:21:22.385Z,1265.63
2019-02-17T14:22:22.390Z,1400.63
2019-02-17T14:23:22.423Z,1361.25
2019-02-17T14:24:22.423Z,1389.38
2019-02-17T14:25:22.464Z,1400.63
2019-02-17T14:26:22.469Z,1383.75
2019-02-17T14:27:22.480Z,1372.50
2019-02-17T14:28:22.505Z,1434.38
2019-02-17T14:29:22.516Z,1428.75
2019-02-17T14:30:22.530Z,1440.00
2019-02-17T14:31:22.556Z,1428.75
2019-02-17T14:32:22.560Z,1456.88
2019-02-17T14:33:22.579Z,1428.75
2019-02-17T14:34:22.606Z,1383.75
2019-02-17T14:35:22.612Z,1372.50
2019-02-17T14:36:22.627Z,1389.38
2019-02-17T14:37:22.653Z,1417.50
2019-02-17T14:38:22.658Z,1451.25
2019-02-17T14:39:22.675Z,1513.13
2019-02-17T14:40:22.690Z,1535.63
2019-02-17T14:41:22.723Z,1541.25
2019-02-17T14:42:22.723Z,1569.38
2019-02-17T14:43:22.744Z,1496.25
2019-02-17T14:44:22.749Z,1468.13
2019-02-17T14:45:22.768Z,1400.63
2019-02-17T14:46:22.802Z,1411.88
2019-02-17T14:47:22.813Z,1428.75
2019-02-17T14:48:22.830Z,1586.25
2019-02-17T14:49:22.838Z,1563.75
2019-02-17T14:50:22.877Z,1575.00
2019-02-17T14:51:22.869Z,1575.00
2019-02-17T14:52:22.896Z,1456.88
2019-02-17T14:53:22.898Z,1496.25
2019-02-17T14:54:22.922Z,1434.38
2019-02-17T14:55:22.939Z,1383.75
2019-02-17T14:57:22.964Z,1473.75
2019-02-17T14:58:22.980Z,1501.88
2019-02-17T14:59:23.797Z,1496.25
2019-02-17T15:00:23.021Z,1417.50
2019-02-17T15:01:23.029Z,1417.50
2019-02-17T15:02:23.045Z,1366.88
2019-02-17T15:03:23.065Z,1344.38
2019-02-17T15:04:23.078Z,1355.63
2019-02-17T15:05:23.102Z,1355.63
2019-02-17T15:06:23.107Z,1310.63
2019-02-17T15:07:23.121Z,1209.38
2019-02-17T15:08:23.140Z,1108.13
2019-02-17T15:09:23.151Z,1125.00
2019-02-17T15:10:23.170Z,1265.63
2019-02-17T15:11:23.186Z,1243.13
2019-02-17T15:12:23.201Z,1164.38
2019-02-17T15:13:24.740Z,1170.00
2019-02-17T15:14:23.233Z,1192.50
2019-02-17T15:15:23.246Z,1147.50
2019-02-17T15:16:23.279Z,1102.50
2019-02-17T15:17:23.279Z,1068.75
2019-02-17T15:18:23.295Z,1068.75
2019-02-17T15:19:23.300Z,1029.38
2019-02-17T15:20:23.323Z,961.88
2019-02-17T15:21:23.342Z,922.50
2019-02-17T15:22:23.355Z,911.25
2019-02-17T15:23:23.374Z,928.13
2019-02-17T15:24:23.392Z,939.38
2019-02-17T15:25:23.401Z,978.75
2019-02-17T15:26:23.417Z,950.63
2019-02-17T15:27:23.457Z,916.88
2019-02-17T15:28:23.449Z,877.50
2019-02-17T15:29:23.467Z,832.50
2019-02-17T15:30:23.476Z,765.00
2019-02-17T15:31:23.491Z,731.25
2019-02-17T15:32:23.514Z,703.13
2019-02-17T15:33:23.530Z,708.75
2019-02-17T15:34:23.527Z,714.38
2019-02-17T15:35:24.394Z,731.25
2019-02-17T15:36:23.580Z,725.63
2019-02-17T15:37:23.582Z,720.00
2019-02-17T15:38:23.613Z,731.25
2019-02-17T15:39:23.616Z,731.25
2019-02-17T15:40:23.661Z,708.75
2019-02-17T15:41:23.651Z,708.75
2019-02-17T15:42:23.657Z,708.75
2019-02-17T15:43:23.688Z,714.38
2019-02-17T15:44:23.682Z,663.75
2019-02-17T15:45:23.700Z,585.00
2019-02-17T15:46:23.719Z,556.88
2019-02-17T15:47:23.738Z,562.50
2019-02-17T15:48:23.755Z,551.25
2019-02-17T15:49:23.775Z,568.13
2019-02-17T15:50:23.778Z,551.25
2019-02-17T15:51:23.797Z,528.75
2019-02-17T15:52:23.811Z,523.13
2019-02-17T15:53:23.823Z,511.88
2019-02-17T15:54:23.833Z,472.50
2019-02-17T15:55:23.865Z,405.00
2019-02-17T15:56:23.885Z,348.75
2019-02-17T15:57:23.880Z,337.50
2019-02-17T15:58:23.901Z,331.88
2019-02-17T15:59:23.910Z,309.38
2019-02-17T16:00:23.945Z,292.50
2019-02-17T16:01:23.935Z,270.00
2019-02-17T16:02:23.952Z,298.13
2019-02-17T16:03:23.971Z,331.88
2019-02-17T16:04:28.491Z,326.25
2019-02-17T16:05:24.005Z,303.75
2019-02-17T16:06:24.013Z,298.13
2019-02-17T16:07:24.030Z,298.13
2019-02-17T16:08:24.051Z,309.38
2019-02-17T16:09:24.042Z,315.00
2019-02-17T16:10:24.073Z,303.75
2019-02-17T16:11:24.083Z,281.25
2019-02-17T16:12:24.090Z,264.38
2019-02-17T16:13:24.108Z,258.75
2019-02-17T16:14:24.116Z,241.88
2019-02-17T16:15:24.123Z,208.13
2019-02-17T16:16:24.142Z,185.63
2019-02-17T16:17:24.167Z,174.38
2019-02-17T16:18:24.173Z,180.00
2019-02-17T16:19:24.209Z,185.63
2019-02-17T16:20:24.214Z,196.88
2019-02-17T16:21:24.218Z,191.25
2019-02-17T16:22:24.237Z,163.13
2019-02-17T16:23:24.249Z,135.00
2019-02-17T16:24:24.250Z,106.88
2019-02-17T16:25:24.270Z,90.00
2019-02-17T16:26:24.287Z,78.75
2019-02-17T16:27:24.291Z,73.13
2019-02-17T16:28:24.318Z,67.50
2019-02-17T16:29:24.330Z,61.88
2019-02-17T16:30:24.332Z,56.25
2019-02-17T16:31:24.342Z,56.25
2019-02-17T16:32:24.359Z,56.25
2019-02-17T16:33:24.368Z,50.63
2019-02-17T16:34:24.375Z,39.38
2019-02-17T16:35:24.398Z,39.38
2019-02-17T16:36:24.417Z,39.38
2019-02-17T16:37:24.758Z,33.75
2019-02-17T16:38:24.439Z,28.13
2019-02-17T16:39:24.452Z,28.13
2019-02-17T16:40:24.461Z,22.50
2019-02-17T16:41:24.496Z,22.50
2019-02-17T16:42:24.491Z,16.88
2019-02-17T16:43:24.496Z,16.88
2019-02-17T16:44:24.512Z,16.88
2019-02-17T16:45:24.516Z,11.25
2019-02-17T16:46:24.526Z,11.25
2019-02-17T16:47:24.537Z,11.25
2019-02-17T16:48:24.559Z,5.63
2019-02-17T16:49:24.737Z,5.63
2019-02-17T16:50:24.594Z,5.63
2019-02-17T16:51:24.572Z,5.63
2019-02-17T16:52:24.588Z,5.63
2019-02-17T16:53:24.626Z,5.63
2019-02-17T16:54:24.616Z,5.63
2019-02-17T16:55:24.622Z,0.00
2019-02-17T16:56:24.631Z,0.00
2019-02-17T16:57:24.648Z,0.00
2019-02-17T16:58:24.650Z,0.00
2019-02-17T16:59:24.675Z,0.00
2019-02-17T17:00:24.669Z,0.00
2019-02-17T17:01:24.683Z,0.00
2019-02-17T17:02:24.721Z,0.00
2019-02-17T17:03:24.708Z,0.00
2019-02-17T17:04:24.724Z,0.00
2019-02-17T17:05:24.748Z,0.00
2019-02-17T17:06:24.748Z,0.00
2019-02-17T17:07:24.766Z,0.00
2019-02-17T17:08:24.766Z,0.00
2019-02-17T17:09:24.777Z,0.00
2019-02-17T17:10:24.787Z,0.00
2019-02-17T17:11:24.796Z,0.00
2019-02-17T17:12:25.018Z,0.00
2019-02-17T17:13:24.827Z,0.00
2019-02-17T17:14:24.825Z,0.00
2019-02-17T17:15:24.838Z,0.00
2019-02-17T17:16:24.854Z,0.00
2019-02-17T17:17:24.857Z,0.00
2019-02-17T17:18:24.930Z,0.00
2019-02-17T17:19:24.888Z,0.00
2019-02-17T17:20:24.888Z,0.00
2019-02-17T17:21:25.370Z,0.00
2019-02-17T17:22:24.909Z,0.00
2019-02-17T17:23:24.914Z,0.00
2019-02-17T17:24:24.925Z,0.00
2019-02-17T17:25:24.943Z,0.00
2019-02-17T17:26:24.949Z,0.00
2019-02-17T17:27:24.956Z,0.00
2019-02-17T17:28:25.902Z,0.00
2019-02-17T17:29:24.977Z,0.00
2019-02-17T17:30:24.980Z,0.00
2019-02-17T17:31:25.061Z,0.00
2019-02-17T17:32:25.006Z,0.00
2019-02-17T17:33:25.021Z,0.00
2019-02-17T17:34:25.026Z,0.00
2019-02-17T17:35:25.038Z,0.00
2019-02-17T17:36:25.042Z,0.00
2019-02-17T17:37:25.054Z,0.00
2019-02-17T17:38:25.053Z,0.00
2019-02-17T17:39:25.088Z,0.00
2019-02-17T17:40:25.088Z,0.00
2019-02-17T17:41:25.100Z,0.00
2019-02-17T17:42:25.114Z,0.00
2019-02-17T17:43:25.118Z,0.00
2019-02-17T17:44:25.125Z,0.00
2019-02-17T17:45:25.136Z,0.00
2019-02-17T17:46:25.132Z,0.00
2019-02-17T17:47:25.150Z,0.00
2019-02-17T17:48:25.194Z,0.00
2019-02-17T17:49:25.164Z,0.00
2019-02-17T17:50:25.177Z,0.00
2019-02-17T17:51:25.192Z,0.00
2019-02-17T17:52:25.189Z,0.00
2019-02-17T17:53:25.209Z,0.00
2019-02-17T17:54:25.220Z,0.00
2019-02-17T17:55:25.228Z,0.00
2019-02-17T17:56:25.236Z,0.00
2019-02-17T17:57:25.247Z,0.00
2019-02-17T17:58:25.263Z,0.00
2019-02-17T17:59:25.262Z,0.00
2019-02-17T18:00:25.291Z,0.00
2019-02-17T18:01:25.283Z,0.00
2019-02-17T18:02:25.292Z,0.00
2019-02-17T18:03:25.314Z,0.00
2019-02-17T18:04:25.311Z,0.00
2019-02-17T18:05:25.329Z,0.00
2019-02-17T18:06:25.326Z,0.00
2019-02-17T18:07:25.343Z,0.00
2019-02-17T18:08:25.349Z,0.00
2019-02-17T18:09:25.360Z,0.00
2019-02-17T18:10:25.364Z,0.00
2019-02-17T18:11:25.367Z,0.00
2019-02-17T18:12:25.384Z,0.00
2019-02-17T18:13:25.402Z,0.00
2019-02-17T18:14:25.405Z,0.00
2019-02-17T18:15:25.412Z,0.00
2019-02-17T18:16:25.411Z,0.00
2019-02-17T18:17:25.426Z,0.00
2019-02-17T18:18:25.482Z,0.00
2019-02-17T18:19:25.463Z,0.00
2019-02-17T18:20:25.446Z,0.00
2019-02-17T18:21:25.469Z,0.00
2019-02-17T18:22:25.489Z,0.00
2019-02-17T18:23:25.484Z,0.00
2019-02-17T18:24:26.821Z,0.00
2019-02-17T18:25:25.497Z,0.00
2019-02-17T18:26:25.507Z,0.00
2019-02-17T18:27:25.526Z,0.00
2019-02-17T18:28:25.525Z,0.00
2019-02-17T18:29:25.534Z,0.00
2019-02-17T18:30:25.538Z,0.00
2019-02-17T18:31:25.561Z,0.00
2019-02-17T18:32:25.564Z,0.00
2019-02-17T18:33:25.578Z,0.00
2019-02-17T18:34:25.574Z,0.00
2019-02-17T18:35:25.605Z,0.00
2019-02-17T18:36:25.601Z,0.00
2019-02-17T18:37:25.601Z,0.00
2019-02-17T18:38:25.612Z,0.00
2019-02-17T18:39:25.622Z,0.00
2019-02-17T18:40:25.632Z,0.00
2019-02-17T18:41:25.634Z,0.00
2019-02-17T18:42:25.644Z,0.00
2019-02-17T18:43:25.663Z,0.00
2019-02-17T18:44:25.669Z,0.00
2019-02-17T18:45:25.660Z,0.00
2019-02-17T18:46:26.436Z,0.00
2019-02-17T18:47:25.694Z,0.00
2019-02-17T18:48:25.695Z,0.00
2019-02-17T18:49:25.716Z,0.00
2019-02-17T18:50:25.722Z,0.00
2019-02-17T18:51:25.735Z,0.00
2019-02-17T18:52:25.734Z,0.00
2019-02-17T18:53:25.743Z,0.00
2019-02-17T18:54:25.748Z,0.00
2019-02-17T18:55:25.759Z,0.00
2019-02-17T18:56:25.769Z,0.00
2019-02-17T18:57:25.771Z,0.00
2019-02-17T18:58:25.780Z,0.00
2019-02-17T18:59:25.811Z,0.00
2019-02-17T19:00:25.802Z,0.00
2019-02-17T19:01:25.796Z,0.00
2019-02-17T19:02:25.815Z,0.00
2019-02-17T19:03:25.834Z,0.00
2019-02-17T19:04:25.843Z,0.00
2019-02-17T19:05:32.059Z,0.00
2019-02-17T19:06:25.849Z,0.00
2019-02-17T19:07:25.872Z,0.00
2019-02-17T19:08:25.855Z,0.00
2019-02-17T19:09:25.876Z,0.00
2019-02-17T19:10:25.886Z,0.00
2019-02-17T19:11:25.885Z,0.00
2019-02-17T19:12:25.898Z,0.00
2019-02-17T19:13:25.918Z,0.00
2019-02-17T19:14:25.919Z,0.00
2019-02-17T19:15:25.933Z,0.00
2019-02-17T19:16:25.934Z,0.00
2019-02-17T19:17:25.935Z,0.00
2019-02-17T19:18:25.948Z,0.00
2019-02-17T19:19:25.966Z,0.00
2019-02-17T19:20:25.967Z,0.00
2019-02-17T19:21:27.411Z,0.00
2019-02-17T19:22:25.976Z,0.00
2019-02-17T19:23:25.996Z,0.00
2019-02-17T19:24:25.997Z,0.00
2019-02-17T19:25:26.004Z,0.00
2019-02-17T19:26:26.015Z,0.00
2019-02-17T19:27:26.024Z,0.00
2019-02-17T19:28:26.031Z,0.00
2019-02-17T19:29:26.040Z,0.00
2019-02-17T19:30:26.061Z,0.00
2019-02-17T19:31:26.047Z,0.00
2019-02-17T19:32:26.065Z,0.00
2019-02-17T19:33:26.072Z,0.00
2019-02-17T19:34:26.092Z,0.00
2019-02-17T19:35:26.079Z,0.00
2019-02-17T19:36:26.094Z,0.00
2019-02-17T19:37:26.106Z,0.00
2019-02-17T19:38:26.114Z,0.00
2019-02-17T19:39:26.149Z,0.00
2019-02-17T19:40:26.130Z,0.00
2019-02-17T19:41:26.134Z,0.00
2019-02-17T19:42:26.151Z,0.00
2019-02-17T19:43:26.170Z,0.00
2019-02-17T19:44:26.175Z,0.00
2019-02-17T19:45:26.165Z,0.00
2019-02-17T19:46:26.170Z,0.00
2019-02-17T19:47:26.192Z,0.00
2019-02-17T19:48:26.199Z,0.00
2019-02-17T19:49:26.202Z,0.00
2019-02-17T19:50:26.213Z,0.00
2019-02-17T19:51:26.217Z,0.00
2019-02-17T19:52:26.229Z,0.00
2019-02-17T19:53:26.223Z,0.00
2019-02-17T19:54:26.232Z,0.00
2019-02-17T19:55:26.258Z,0.00
2019-02-17T19:56:26.250Z,0.00
2019-02-17T19:57:26.265Z,0.00
2019-02-17T19:58:26.270Z,0.00
2019-02-17T19:59:26.275Z,0.00
2019-02-17T20:00:26.291Z,0.00
2019-02-17T20:01:26.285Z,0.00
2019-02-17T20:02:26.309Z,0.00
2019-02-17T20:03:26.306Z,0.00
2019-02-17T20:04:26.326Z,0.00
2019-02-17T20:05:26.322Z,0.00
2019-02-17T20:06:26.329Z,0.00
2019-02-17T20:07:26.344Z,0.00
2019-02-17T20:08:26.346Z,0.00
2019-02-17T20:09:26.346Z,0.00
2019-02-17T20:10:26.427Z,0.00
2019-02-17T20:11:26.365Z,0.00
2019-02-17T20:12:26.374Z,0.00
2019-02-17T20:13:26.386Z,0.00
2019-02-17T20:14:26.398Z,0.00
2019-02-17T20:15:26.400Z,0.00
2019-02-17T20:16:26.416Z,0.00
2019-02-17T20:17:26.412Z,0.00
2019-02-17T20:18:26.426Z,0.00
2019-02-17T20:19:26.438Z,0.00
2019-02-17T20:20:26.440Z,0.00
2019-02-17T20:21:26.459Z,0.00
2019-02-17T20:22:26.452Z,0.00
2019-02-17T20:23:26.483Z,0.00
2019-02-17T20:24:26.465Z,0.00
2019-02-17T20:25:26.462Z,0.00
2019-02-17T20:26:26.480Z,0.00
2019-02-17T20:27:26.481Z,0.00
2019-02-17T20:28:40.654Z,0.00
2019-02-17T20:29:26.501Z,0.00
2019-02-17T20:30:26.509Z,0.00
2019-02-17T20:31:26.517Z,0.00
2019-02-17T20:32:26.540Z,0.00
2019-02-17T20:33:26.527Z,0.00
2019-02-17T20:34:26.548Z,0.00
2019-02-17T20:35:26.549Z,0.00
2019-02-17T20:36:26.555Z,0.00
2019-02-17T20:37:26.570Z,0.00
2019-02-17T20:38:26.580Z,0.00
2019-02-17T20:39:26.571Z,0.00
2019-02-17T20:40:26.586Z,0.00
2019-02-17T20:41:26.612Z,0.00
2019-02-17T20:42:26.615Z,0.00
2019-02-17T20:43:26.609Z,0.00
2019-02-17T20:44:26.609Z,0.00
2019-02-17T20:45:26.616Z,0.00
2019-02-17T20:46:26.638Z,0.00
2019-02-17T20:47:26.636Z,0.00
2019-02-17T20:48:26.636Z,0.00
2019-02-17T20:49:26.654Z,0.00
2019-02-17T20:50:26.661Z,0.00
2019-02-17T20:51:26.658Z,0.00
2019-02-17T20:52:26.678Z,0.00
2019-02-17T20:53:26.683Z,0.00
2019-02-17T20:54:26.689Z,0.00
2019-02-17T20:55:26.699Z,0.00
2019-02-17T20:56:26.694Z,0.00
2019-02-17T20:57:26.711Z,0.00
2019-02-17T20:58:26.714Z,0.00
2019-02-17T20:59:26.727Z,0.00
2019-02-17T21:00:26.743Z,0.00
2019-02-17T21:01:26.741Z,0.00
2019-02-17T21:02:26.744Z,0.00